Berrien Springs, MI

11:50 AM EDT on April 21, 2015 (GMT -0400)
South Bend Regional | | Change Station
CLOSE
Current Station
Airport
Location: South Bend,
Elevation: 774 ft
Nearby Weather Stations
Active Advisory: Wind Advisory

Elev 774 ft 41.71 °N, 86.32 °W | Updated 56 minutes ago

Overcast
Overcast
48 °F
Feels Like 48 °F
N
26
Wind Variable Wind from West
Gusts 34 mph

Today
High -- | Low -- °F
--% Chance of Precip.
Yesterday
High -- | Low -- °F
Precip. -- in
6:56 AM 8:32 PM
Waxing Crescent, 11% visible
Pressure 29.64 in
Visibility 10.0 miles
Clouds Mostly Cloudy 4800 ft
Mostly Cloudy 6500 ft
Dew Point 27 °F
Humidity 44%
Rainfall 0.00 in
Snow Depth Not available.
UV 3 out of 12
Pollen 10.80 out of 12
Air Quality Not available.
Flu Activity Regional
METAR KSBN 211454Z 26023G30KT 10SM BKN048 BKN065 09/M03 A2963 RMK AO2 PK WND 25034/1430 SLP037 T00891028 51002 $

More Conditions Fewer Conditions

Pressure 29.64 in
Visibility 10.0 miles
Clouds Mostly Cloudy 4800 ft
Mostly Cloudy 6500 ft
Dew Point 27 °F
Humidity 44%
Rainfall 0.00 in
Snow Depth Not available.
UV 3 out of 12
Pollen 10.80 out of 12
Air Quality Not available.
Flu Activity Regional
METAR KSBN 211454Z 26023G30KT 10SM BKN048 BKN065 09/M03 A2963 RMK AO2 PK WND 25034/1430 SLP037 T00891028 51002 $

More Conditions Fewer Conditions

10-Day Weather Forecast

Almanac

Astronomy

Apr. 21, 2015 Rise Set
Actual Time
Civil Twilight
Nautical Twilight
Astronomical Twilight
Moon
Length of Visible Light
Length of Day
Tomorrow will be .
, % of the Moon is Illuminated

Today's Extremes

State Highs State Lows

Community

WunderPhotos

Upload Photos

1,815,428 photos uploaded!

WunderBlogs® & News

Nearby

Air Quality

  Air Quality AQ Index Pollutant
Not available.

Snow Depth

Station Depth Elevation

Earthquake Activity

City Distance Mag. Time & Date
Minimum magnitude displayed is 2.5.

Coastal Water Temperatures

Place Temperature

Stations

Nearby Weather Stations

Station Location Temp. Windchill Dew Point Humidity Wind Precip. Elev Updated Type
                   
Wind Advisory
Statement as of 9:27 AM CDT on April 21, 2015

... Wind Advisory remains in effect until 8 PM EDT /7 PM CDT/ this
evening...

Hazardous weather...

* strong winds of 20 to 30 mph from the west... with frequent
   gusts to 45 mph expected into early evening. Isolated wind
   gusts to 50 mph possible this afternoon.

Impacts...

* scattered tree and power line damage is possible. Any
   unsecured objects will be blown around.

* Driving will be difficult... especially for high profile
   vehicles and on north-south oriented roads.

Precautionary/preparedness actions...

A Wind Advisory means that sustained winds of 30 mph... or gusts
over 45 mph are expected. Winds this strong can make driving
difficult... especially for high profile vehicles. Use extra
caution.